x

South Hatteras - 225 South Of Cape Hatteras (41002) Wave Buoy

9:50 - Sat 23rd Sep 2017 All times are EDT. -4 hours from GMT.

  • Sig Wave height 8.9ft
  • Swell Direction
  • Peak Period 14s
  • Average Period 8s
  • Wind
    20mph, 22mph gusts
  • Sea Temp 79°f
  • Air Temp 79°f
  • Sea Pressure 1014.5mb
  • South Hatteras - 225 South Of Cape Hatteras
  • South Hatteras - 225 South Of Cape Hatteras

More Historic Weather Station data

Upgrade to MSW Pro to gain access to the past 30 days of data for over 8000 Wavebouys and Weather Stations around the globe.

Join

Comparision Forecast

View Surf forecast
   
sam. 09/23 9:50 9ft 14s 8s 20 22 mph 1014.5mb 79f 79f
8:50 10ft 13s 8s 20 22 mph 1014.3mb 79f 79f
7:50 9.5ft 12s 9s 16 18 mph 1014.4mb 79f 78f
6:50 10ft 12s 9s 16 18 mph 1013.9mb 79f 78f
5:50 10ft 13s 9s 16 18 mph 1013.8mb 79f 78f
4:50 10ft 11s 9s 16 20 mph 1013.6mb 79f 78f
3:50 9.5ft 11s 9s 16 18 mph 1013.7mb 79f 78f
2:50 10ft 11s 9s 13 18 mph 1014.3mb 79f 78f
1:50 10.5ft 13s 10s 13 16 mph 1014.5mb 79f 78f
12:50 10.5ft 13s 10s 16 18 mph 1014.9mb 79f 78f
ven. 09/22 11:50 9.5ft 12s 10s 13 18 mph 1015.2mb 80f 79f
10:50 10ft 13s 10s 13 18 mph 1015.1mb 80f 79f
9:50 10ft 13s 10s 13 16 mph 1015.1mb 80f 79f
8:50 9ft 14s 10s 13 16 mph 1014.9mb 80f 79f
7:50 8ft 11s 10s 13 16 mph 1014.7mb 80f 79f
6:50 9ft 14s 11s 11 13 mph 1014.6mb 80f 79f
5:50 7ft 12s 10s 11 13 mph 1014.5mb 80f 79f
4:50 7.5ft 13s 10s 2 4 mph 1015mb 81f 80f
3:50 7ft 11s 10s 4 9 mph 1015.1mb 81f 79f
2:50 6ft 11s 9s 7 7 mph 1015.4mb 81f 79f
1:50 5.5ft 12s 9s 7 9 mph 1015.7mb 82f 79f
12:50 6ft 12s 9s 7 9 mph 1016.5mb 82f 79f
11:50 6ft 11s 9s 4 7 mph 1017mb 80f 78f
10:50 5ft 11s 9s 4 7 mph 1017mb 80f 78f
9:50 5ft 11s 8s 7 9 mph 1016.7mb 80f 78f
8:50 5ft 11s 9s 4 4 mph 1016.8mb 80f 78f
7:50 5.5ft 10s 9s 2 4 mph 1016.5mb 80f 78f
6:50 5.5ft 10s 9s 2 4 mph 1016.3mb 80f 77f
5:50 6ft 11s 9s 2 4 mph 1015.5mb 80f 77f
4:50 5ft 11s 9s 2 4 mph 1015.5mb 80f 77f
3:50 5ft 11s 8s 2 2 mph 1015.3mb 80f 77f
2:50 5ft 11s 8s 2 4 mph 1015.4mb 80f 78f
1:50 5ft 10s 8s 2 4 mph 1016mb 81f 78f
12:50 5ft 11s 8s  -  2 mph 1016.5mb 81f 78f
jeu. 09/21 11:50 5ft 11s 9s 2 4 mph 1016.9mb 81f 78f
10:50 5ft 11s 9s 4 7 mph 1016.9mb 81f 78f
9:50 4.5ft 11s 8s 2 4 mph 1016.4mb 82f 79f
8:50 4.5ft 11s 8s  -  2 mph 1015.9mb 82f 79f
7:50 4.5ft 9s 8s  -  2 mph 1015.2mb 83f 79f
6:50 4.5ft 10s 9s  -  4 mph 1015.3mb 84f 80f
5:50 4.5ft 10s 8s  -  2 mph 1015.1mb 83f 80f
4:50 5ft 10s 9s  -  2 mph 1015.2mb 85f 80f
3:50 5ft 11s 8s 2 4 mph 1015.4mb 83f 79f
2:50 5ft 11s 8s 2 4 mph 1015.8mb 83f 79f
1:50 5ft 11s 8s 4 7 mph 1017mb 82f 79f
12:50 5ft 11s 8s 2 4 mph 1017.5mb 82f 79f
11:50 5.5ft 11s 8s 4 7 mph 1017.7mb 81f 78f
10:50 5ft 9s 7s 2 4 mph 1017.7mb 80f 78f
9:50 5.5ft 9s 8s 2 4 mph 1017.3mb 80f 78f
8:50 5.5ft 10s 8s 2 4 mph 1017.1mb 79f 78f
7:50 6ft 11s 8s 2 4 mph 1016.7mb 79f 78f
6:50 5.5ft 11s 8s  -  2 mph 1016.4mb 79f 78f
5:50 6.5ft 11s 8s 2 2 mph 1015.9mb 79f 78f
4:50 6ft 10s 8s  -  2 mph 1015.6mb 80f 78f
3:50 6.5ft 10s 9s  -  2 mph 1015.5mb 80f 78f
2:50 6.5ft 11s 8s 4 7 mph 1015.8mb 80f 78f
1:50 6ft 11s 8s 4 7 mph 1016.3mb 80f 79f
12:50 8ft 11s 9s 4 7 mph 1016.4mb 80f 79f
mer. 09/20 11:50 7ft 11s 9s 2 2 mph 1016.7mb 80f 79f
10:50 6.5ft 11s 8s 2 2 mph 1016.7mb 80f 79f
9:50 7ft 11s 9s  -  0 mph 1016.6mb 80f 79f
8:50 6ft 11s 9s  -  2 mph 1016.2mb 80f 80f
7:50 7ft 11s 9s  -  0 mph 1016mb 80f 80f
6:50 7ft 11s 9s 2 4 mph 1015.7mb 80f 80f
5:50 6.5ft 11s 9s 7 9 mph 1015.5mb 81f 81f
4:50 6ft 11s 8s 7 7 mph 1015.4mb 81f 81f
3:50 6.5ft 12s 9s 7 9 mph 1015.5mb 81f 80f
2:50 7.5ft 11s 9s 7 9 mph 1015.8mb 81f 80f
1:50 7ft 11s 8s 7 9 mph 1016mb 81f 80f
12:50 7.5ft 12s 9s 4 7 mph 1016.7mb 81f 80f
11:50 7.5ft 11s 8s 4 7 mph 1017.1mb 80f 80f
10:50 9ft 11s 9s 4 4 mph 1017.2mb 80f 79f
9:50 8ft 10s 8s 7 9 mph 1017.1mb 80f 79f
8:50 8ft 11s 8s 9 11 mph 1016.6mb 80f 79f
7:50 8.5ft 11s 8s 7 9 mph 1016.2mb 80f 79f
6:50 8ft 11s 8s 7 9 mph 1015.5mb 80f 78f
5:50 8.5ft 11s 8s 7 7 mph 1015.1mb 80f 78f
4:50 7.5ft 11s 8s 7 9 mph 1014.6mb 80f 78f
3:50 8ft 11s 8s 7 9 mph 1014.4mb 79f 79f
2:50 7.5ft 11s 8s 7 9 mph 1014.5mb 79f 79f
1:50 7.5ft 11s 8s 7 9 mph 1014.9mb 79f 79f
12:50 8ft 11s 8s 7 11 mph 1014.8mb 79f 79f
mar. 09/19 11:50 8.5ft 11s 8s 7 9 mph 1015.2mb 80f 79f
10:50 8.5ft 11s 8s 7 9 mph 1014.9mb 80f 79f
9:50 10ft 11s 8s 9 11 mph 1014.4mb 80f 79f
8:50 9ft 11s 8s 9 11 mph 1014.2mb 80f 79f
7:50 10ft 11s 8s 9 11 mph 1013.7mb 80f 79f
6:50 9ft 11s 8s 13 16 mph 1013.2mb 80f 79f
5:50 9ft 10s 8s 13 16 mph 1012.8mb 80f 80f
4:50 8ft 11s 7s 13 16 mph 1012.5mb 80f 80f
3:50 8.5ft 10s 7s 16 20 mph 1012.3mb 80f 80f